sensor_id;sensor_type;location;lat;lon;timestamp;temperature;humidity
15111;DHT22;7656;51.954;7.998;2022-08-03T00:03:02;20.20;99.90
15111;DHT22;7656;51.954;7.998;2022-08-03T00:07:23;20.00;99.90
15111;DHT22;7656;51.954;7.998;2022-08-03T00:11:44;20.20;99.90
15111;DHT22;7656;51.954;7.998;2022-08-03T00:16:05;20.40;99.90
15111;DHT22;7656;51.954;7.998;2022-08-03T00:20:26;20.40;99.90
15111;DHT22;7656;51.954;7.998;2022-08-03T00:24:47;20.10;99.90
15111;DHT22;7656;51.954;7.998;2022-08-03T00:29:09;19.80;99.90
15111;DHT22;7656;51.954;7.998;2022-08-03T00:33:31;19.60;99.90
15111;DHT22;7656;51.954;7.998;2022-08-03T00:37:52;19.60;99.90
15111;DHT22;7656;51.954;7.998;2022-08-03T00:42:14;19.40;99.90
15111;DHT22;7656;51.954;7.998;2022-08-03T00:46:36;19.30;99.90
15111;DHT22;7656;51.954;7.998;2022-08-03T00:50:57;19.40;99.90
15111;DHT22;7656;51.954;7.998;2022-08-03T00:55:19;19.60;99.90
15111;DHT22;7656;51.954;7.998;2022-08-03T00:59:40;19.70;99.90
15111;DHT22;7656;51.954;7.998;2022-08-03T01:04:01;19.80;99.90
15111;DHT22;7656;51.954;7.998;2022-08-03T01:08:46;19.50;99.90
15111;DHT22;7656;51.954;7.998;2022-08-03T01:13:20;19.30;99.90
15111;DHT22;7656;51.954;7.998;2022-08-03T01:17:54;19.40;99.90
15111;DHT22;7656;51.954;7.998;2022-08-03T01:22:44;19.60;99.90
15111;DHT22;7656;51.954;7.998;2022-08-03T01:27:28;19.40;99.90
15111;DHT22;7656;51.954;7.998;2022-08-03T01:32:00;19.20;99.90
15111;DHT22;7656;51.954;7.998;2022-08-03T01:36:27;19.00;99.90
15111;DHT22;7656;51.954;7.998;2022-08-03T01:40:51;19.00;99.90
15111;DHT22;7656;51.954;7.998;2022-08-03T01:45:15;19.00;99.90
15111;DHT22;7656;51.954;7.998;2022-08-03T01:49:42;19.00;99.90
15111;DHT22;7656;51.954;7.998;2022-08-03T01:54:08;19.20;99.90
15111;DHT22;7656;51.954;7.998;2022-08-03T01:58:31;19.00;99.90
15111;DHT22;7656;51.954;7.998;2022-08-03T02:02:55;19.10;99.90
15111;DHT22;7656;51.954;7.998;2022-08-03T02:07:18;19.00;99.90
15111;DHT22;7656;51.954;7.998;2022-08-03T02:11:39;18.90;99.90
15111;DHT22;7656;51.954;7.998;2022-08-03T02:16:02;18.80;99.90
15111;DHT22;7656;51.954;7.998;2022-08-03T02:20:26;18.80;99.90
15111;DHT22;7656;51.954;7.998;2022-08-03T02:24:48;18.90;99.90
15111;DHT22;7656;51.954;7.998;2022-08-03T02:29:17;19.00;99.90
15111;DHT22;7656;51.954;7.998;2022-08-03T02:33:51;19.10;99.90
15111;DHT22;7656;51.954;7.998;2022-08-03T02:38:14;19.20;99.90
15111;DHT22;7656;51.954;7.998;2022-08-03T02:42:37;19.10;99.90
15111;DHT22;7656;51.954;7.998;2022-08-03T02:47:03;18.90;99.90
15111;DHT22;7656;51.954;7.998;2022-08-03T02:51:29;19.00;99.90
15111;DHT22;7656;51.954;7.998;2022-08-03T02:55:54;19.10;99.90
15111;DHT22;7656;51.954;7.998;2022-08-03T03:00:16;19.10;99.90
15111;DHT22;7656;51.954;7.998;2022-08-03T03:04:38;19.10;99.90
15111;DHT22;7656;51.954;7.998;2022-08-03T03:09:00;19.10;99.90
15111;DHT22;7656;51.954;7.998;2022-08-03T03:13:22;18.90;99.90
15111;DHT22;7656;51.954;7.998;2022-08-03T03:17:44;18.70;99.90
15111;DHT22;7656;51.954;7.998;2022-08-03T03:22:07;18.70;99.90
15111;DHT22;7656;51.954;7.998;2022-08-03T03:26:29;18.50;99.90
15111;DHT22;7656;51.954;7.998;2022-08-03T03:30:50;18.50;99.90
15111;DHT22;7656;51.954;7.998;2022-08-03T03:35:13;18.60;99.90
15111;DHT22;7656;51.954;7.998;2022-08-03T03:39:35;18.60;99.90
15111;DHT22;7656;51.954;7.998;2022-08-03T03:43:57;18.60;99.90
15111;DHT22;7656;51.954;7.998;2022-08-03T03:48:19;18.70;99.90
15111;DHT22;7656;51.954;7.998;2022-08-03T03:52:40;18.80;99.90
15111;DHT22;7656;51.954;7.998;2022-08-03T03:57:02;18.70;99.90
15111;DHT22;7656;51.954;7.998;2022-08-03T04:01:23;18.80;99.90
15111;DHT22;7656;51.954;7.998;2022-08-03T04:05:45;18.80;99.90
15111;DHT22;7656;51.954;7.998;2022-08-03T04:10:27;18.90;99.90
15111;DHT22;7656;51.954;7.998;2022-08-03T04:15:08;18.90;99.90
15111;DHT22;7656;51.954;7.998;2022-08-03T04:19:34;18.90;99.90
15111;DHT22;7656;51.954;7.998;2022-08-03T04:24:00;18.70;99.90
15111;DHT22;7656;51.954;7.998;2022-08-03T04:28:24;18.70;99.90
15111;DHT22;7656;51.954;7.998;2022-08-03T04:32:46;18.90;99.90
15111;DHT22;7656;51.954;7.998;2022-08-03T04:37:16;18.90;99.90
15111;DHT22;7656;51.954;7.998;2022-08-03T04:41:44;18.90;99.90
15111;DHT22;7656;51.954;7.998;2022-08-03T04:46:07;18.90;99.90
15111;DHT22;7656;51.954;7.998;2022-08-03T04:50:29;19.00;99.90
15111;DHT22;7656;51.954;7.998;2022-08-03T04:55:00;18.90;99.90
15111;DHT22;7656;51.954;7.998;2022-08-03T04:59:21;18.90;99.90
15111;DHT22;7656;51.954;7.998;2022-08-03T05:03:42;18.90;99.90
15111;DHT22;7656;51.954;7.998;2022-08-03T05:08:04;18.70;99.90
15111;DHT22;7656;51.954;7.998;2022-08-03T05:12:25;18.70;99.90
15111;DHT22;7656;51.954;7.998;2022-08-03T05:16:46;19.10;99.90
15111;DHT22;7656;51.954;7.998;2022-08-03T05:21:08;19.20;99.90
15111;DHT22;7656;51.954;7.998;2022-08-03T05:25:30;19.30;99.90
15111;DHT22;7656;51.954;7.998;2022-08-03T05:29:51;19.60;99.90
15111;DHT22;7656;51.954;7.998;2022-08-03T05:34:12;19.90;99.90
15111;DHT22;7656;51.954;7.998;2022-08-03T05:38:33;20.00;99.90
15111;DHT22;7656;51.954;7.998;2022-08-03T05:42:56;20.10;99.90
15111;DHT22;7656;51.954;7.998;2022-08-03T05:47:17;20.50;99.90
15111;DHT22;7656;51.954;7.998;2022-08-03T05:51:38;20.70;99.90
15111;DHT22;7656;51.954;7.998;2022-08-03T05:56:00;20.80;99.90
15111;DHT22;7656;51.954;7.998;2022-08-03T06:00:21;21.20;99.90
15111;DHT22;7656;51.954;7.998;2022-08-03T06:04:42;21.30;99.90
15111;DHT22;7656;51.954;7.998;2022-08-03T06:09:05;21.50;99.90
15111;DHT22;7656;51.954;7.998;2022-08-03T06:13:26;21.60;99.90
15111;DHT22;7656;51.954;7.998;2022-08-03T06:17:48;22.00;99.90
15111;DHT22;7656;51.954;7.998;2022-08-03T06:22:11;22.40;99.90
15111;DHT22;7656;51.954;7.998;2022-08-03T06:26:32;22.40;99.90
15111;DHT22;7656;51.954;7.998;2022-08-03T06:30:53;22.70;99.90
15111;DHT22;7656;51.954;7.998;2022-08-03T06:35:14;23.20;99.90
15111;DHT22;7656;51.954;7.998;2022-08-03T06:39:36;24.50;99.90
15111;DHT22;7656;51.954;7.998;2022-08-03T06:43:57;27.80;99.90
15111;DHT22;7656;51.954;7.998;2022-08-03T06:48:18;30.30;99.90
15111;DHT22;7656;51.954;7.998;2022-08-03T07:18:50;43.60;73.00
15111;DHT22;7656;51.954;7.998;2022-08-03T07:23:11;43.60;73.70
15111;DHT22;7656;51.954;7.998;2022-08-03T07:31:54;45.90;60.00
15111;DHT22;7656;51.954;7.998;2022-08-03T07:36:15;45.80;61.50
15111;DHT22;7656;51.954;7.998;2022-08-03T07:40:37;45.50;60.60
15111;DHT22;7656;51.954;7.998;2022-08-03T07:44:59;45.80;58.30
15111;DHT22;7656;51.954;7.998;2022-08-03T07:49:20;45.90;57.50
15111;DHT22;7656;51.954;7.998;2022-08-03T07:53:41;46.10;57.10
15111;DHT22;7656;51.954;7.998;2022-08-03T07:58:11;46.20;55.60
15111;DHT22;7656;51.954;7.998;2022-08-03T08:02:35;47.00;54.40
15111;DHT22;7656;51.954;7.998;2022-08-03T08:06:56;47.50;52.70
15111;DHT22;7656;51.954;7.998;2022-08-03T08:11:17;47.40;53.30
15111;DHT22;7656;51.954;7.998;2022-08-03T08:15:39;46.70;53.20
15111;DHT22;7656;51.954;7.998;2022-08-03T08:20:00;46.40;52.60
15111;DHT22;7656;51.954;7.998;2022-08-03T08:24:21;45.70;54.10
15111;DHT22;7656;51.954;7.998;2022-08-03T08:28:42;45.90;53.00
15111;DHT22;7656;51.954;7.998;2022-08-03T08:33:03;45.70;52.60
15111;DHT22;7656;51.954;7.998;2022-08-03T08:37:25;47.00;51.20
15111;DHT22;7656;51.954;7.998;2022-08-03T08:41:50;47.70;49.60
15111;DHT22;7656;51.954;7.998;2022-08-03T08:46:12;48.10;49.50
15111;DHT22;7656;51.954;7.998;2022-08-03T08:50:36;47.90;49.70
15111;DHT22;7656;51.954;7.998;2022-08-03T08:54:59;48.20;48.70
15111;DHT22;7656;51.954;7.998;2022-08-03T08:59:24;47.60;49.10
15111;DHT22;7656;51.954;7.998;2022-08-03T09:03:46;47.20;49.30
15111;DHT22;7656;51.954;7.998;2022-08-03T09:08:08;47.30;48.50
15111;DHT22;7656;51.954;7.998;2022-08-03T09:12:29;47.20;48.20
15111;DHT22;7656;51.954;7.998;2022-08-03T09:17:02;46.10;48.90
15111;DHT22;7656;51.954;7.998;2022-08-03T09:21:27;44.50;49.70
15111;DHT22;7656;51.954;7.998;2022-08-03T09:25:57;42.80;52.20
15111;DHT22;7656;51.954;7.998;2022-08-03T09:30:20;41.70;52.40
15111;DHT22;7656;51.954;7.998;2022-08-03T09:34:41;41.00;53.30
15111;DHT22;7656;51.954;7.998;2022-08-03T09:39:11;39.80;55.70
15111;DHT22;7656;51.954;7.998;2022-08-03T09:43:44;39.20;56.30
15111;DHT22;7656;51.954;7.998;2022-08-03T09:48:26;38.70;57.00
15111;DHT22;7656;51.954;7.998;2022-08-03T09:52:50;38.20;56.80
15111;DHT22;7656;51.954;7.998;2022-08-03T09:57:23;37.50;59.30
15111;DHT22;7656;51.954;7.998;2022-08-03T10:01:45;37.40;59.00
15111;DHT22;7656;51.954;7.998;2022-08-03T10:06:20;36.90;59.10
15111;DHT22;7656;51.954;7.998;2022-08-03T10:10:45;36.60;59.70
15111;DHT22;7656;51.954;7.998;2022-08-03T10:15:08;36.60;61.10
15111;DHT22;7656;51.954;7.998;2022-08-03T10:19:30;36.50;60.80
15111;DHT22;7656;51.954;7.998;2022-08-03T10:23:53;36.30;60.80
15111;DHT22;7656;51.954;7.998;2022-08-03T10:28:17;36.50;61.00
15111;DHT22;7656;51.954;7.998;2022-08-03T10:32:51;36.40;61.40
15111;DHT22;7656;51.954;7.998;2022-08-03T10:37:20;36.60;60.60
15111;DHT22;7656;51.954;7.998;2022-08-03T10:41:44;36.50;60.40
15111;DHT22;7656;51.954;7.998;2022-08-03T10:46:07;36.70;60.10
15111;DHT22;7656;51.954;7.998;2022-08-03T10:50:28;36.60;60.40
15111;DHT22;7656;51.954;7.998;2022-08-03T10:54:49;36.40;60.60
15111;DHT22;7656;51.954;7.998;2022-08-03T11:00:02;36.50;60.60
15111;DHT22;7656;51.954;7.998;2022-08-03T11:04:24;36.30;62.10
15111;DHT22;7656;51.954;7.998;2022-08-03T11:08:48;36.40;61.10
15111;DHT22;7656;51.954;7.998;2022-08-03T11:13:14;36.80;60.40
15111;DHT22;7656;51.954;7.998;2022-08-03T11:17:36;37.10;60.30
15111;DHT22;7656;51.954;7.998;2022-08-03T11:21:58;37.20;59.80
15111;DHT22;7656;51.954;7.998;2022-08-03T11:26:19;37.10;60.40
15111;DHT22;7656;51.954;7.998;2022-08-03T11:30:42;37.20;60.40
15111;DHT22;7656;51.954;7.998;2022-08-03T11:39:47;36.80;59.90
15111;DHT22;7656;51.954;7.998;2022-08-03T11:44:39;36.50;62.10
15111;DHT22;7656;51.954;7.998;2022-08-03T11:49:04;37.00;61.90
15111;DHT22;7656;51.954;7.998;2022-08-03T11:53:27;37.20;62.40
15111;DHT22;7656;51.954;7.998;2022-08-03T11:57:49;37.40;60.30
15111;DHT22;7656;51.954;7.998;2022-08-03T12:02:11;37.50;61.50
15111;DHT22;7656;51.954;7.998;2022-08-03T12:06:35;37.90;59.30
15111;DHT22;7656;51.954;7.998;2022-08-03T12:11:15;38.00;59.60
15111;DHT22;7656;51.954;7.998;2022-08-03T12:15:36;37.50;59.40
15111;DHT22;7656;51.954;7.998;2022-08-03T12:19:58;37.30;59.20
15111;DHT22;7656;51.954;7.998;2022-08-03T12:24:19;37.60;58.70
15111;DHT22;7656;51.954;7.998;2022-08-03T12:28:47;37.60;60.00
15111;DHT22;7656;51.954;7.998;2022-08-03T12:33:16;37.60;58.70
15111;DHT22;7656;51.954;7.998;2022-08-03T12:37:47;37.50;59.50
15111;DHT22;7656;51.954;7.998;2022-08-03T12:42:09;37.80;59.00
15111;DHT22;7656;51.954;7.998;2022-08-03T12:46:40;37.70;57.00
15111;DHT22;7656;51.954;7.998;2022-08-03T12:51:09;37.50;59.60
15111;DHT22;7656;51.954;7.998;2022-08-03T12:55:31;37.60;58.50
15111;DHT22;7656;51.954;7.998;2022-08-03T12:59:53;37.50;59.00
15111;DHT22;7656;51.954;7.998;2022-08-03T13:04:25;37.60;57.40
15111;DHT22;7656;51.954;7.998;2022-08-03T13:09:06;37.40;57.70
15111;DHT22;7656;51.954;7.998;2022-08-03T13:13:37;37.60;57.30
15111;DHT22;7656;51.954;7.998;2022-08-03T13:17:59;37.30;58.50
15111;DHT22;7656;51.954;7.998;2022-08-03T13:22:22;37.60;57.00
15111;DHT22;7656;51.954;7.998;2022-08-03T13:26:45;37.80;56.70
15111;DHT22;7656;51.954;7.998;2022-08-03T13:31:06;38.10;56.30
15111;DHT22;7656;51.954;7.998;2022-08-03T13:35:27;37.90;57.40
15111;DHT22;7656;51.954;7.998;2022-08-03T13:39:50;37.80;57.50
15111;DHT22;7656;51.954;7.998;2022-08-03T13:44:12;37.30;57.70
15111;DHT22;7656;51.954;7.998;2022-08-03T13:48:33;36.70;56.40
15111;DHT22;7656;51.954;7.998;2022-08-03T13:52:54;36.80;58.70
15111;DHT22;7656;51.954;7.998;2022-08-03T13:57:16;37.10;58.20
15111;DHT22;7656;51.954;7.998;2022-08-03T14:01:37;37.30;57.40
15111;DHT22;7656;51.954;7.998;2022-08-03T14:05:58;37.50;57.60
15111;DHT22;7656;51.954;7.998;2022-08-03T14:10:19;37.40;58.80
15111;DHT22;7656;51.954;7.998;2022-08-03T14:14:41;37.30;57.40
15111;DHT22;7656;51.954;7.998;2022-08-03T14:19:03;37.30;57.90
15111;DHT22;7656;51.954;7.998;2022-08-03T14:23:25;37.30;57.80
15111;DHT22;7656;51.954;7.998;2022-08-03T14:27:46;37.20;57.80
15111;DHT22;7656;51.954;7.998;2022-08-03T14:32:07;36.90;57.60
15111;DHT22;7656;51.954;7.998;2022-08-03T14:36:28;36.90;57.90
15111;DHT22;7656;51.954;7.998;2022-08-03T14:40:50;36.70;58.10
15111;DHT22;7656;51.954;7.998;2022-08-03T14:45:12;36.70;58.80
15111;DHT22;7656;51.954;7.998;2022-08-03T14:49:34;36.50;58.10
15111;DHT22;7656;51.954;7.998;2022-08-03T14:53:56;36.40;59.20
15111;DHT22;7656;51.954;7.998;2022-08-03T14:58:26;36.20;59.00
15111;DHT22;7656;51.954;7.998;2022-08-03T15:02:47;36.30;60.80
15111;DHT22;7656;51.954;7.998;2022-08-03T15:07:08;36.50;59.70
15111;DHT22;7656;51.954;7.998;2022-08-03T15:11:30;36.60;59.00
15111;DHT22;7656;51.954;7.998;2022-08-03T15:15:51;36.70;58.60
15111;DHT22;7656;51.954;7.998;2022-08-03T15:20:12;36.80;58.60
15111;DHT22;7656;51.954;7.998;2022-08-03T15:24:33;37.00;58.40
15111;DHT22;7656;51.954;7.998;2022-08-03T15:28:55;37.10;57.60
15111;DHT22;7656;51.954;7.998;2022-08-03T15:33:17;37.10;57.80
15111;DHT22;7656;51.954;7.998;2022-08-03T15:37:38;37.00;58.90
15111;DHT22;7656;51.954;7.998;2022-08-03T15:41:59;36.80;58.00
15111;DHT22;7656;51.954;7.998;2022-08-03T15:46:20;36.20;60.10
15111;DHT22;7656;51.954;7.998;2022-08-03T15:50:42;36.30;59.30
15111;DHT22;7656;51.954;7.998;2022-08-03T15:55:04;36.30;58.80
15111;DHT22;7656;51.954;7.998;2022-08-03T15:59:25;36.00;59.00
15111;DHT22;7656;51.954;7.998;2022-08-03T16:03:46;36.10;58.80
15111;DHT22;7656;51.954;7.998;2022-08-03T16:08:07;35.90;60.00
15111;DHT22;7656;51.954;7.998;2022-08-03T16:12:29;36.00;59.40
15111;DHT22;7656;51.954;7.998;2022-08-03T16:16:50;35.90;59.80
15111;DHT22;7656;51.954;7.998;2022-08-03T16:21:11;35.80;59.20
15111;DHT22;7656;51.954;7.998;2022-08-03T16:25:34;35.80;59.30
15111;DHT22;7656;51.954;7.998;2022-08-03T16:29:55;35.80;59.10
15111;DHT22;7656;51.954;7.998;2022-08-03T16:34:16;35.40;60.50
15111;DHT22;7656;51.954;7.998;2022-08-03T16:38:37;35.30;59.60
15111;DHT22;7656;51.954;7.998;2022-08-03T16:42:59;35.10;60.00
15111;DHT22;7656;51.954;7.998;2022-08-03T16:47:20;34.80;62.10
15111;DHT22;7656;51.954;7.998;2022-08-03T16:51:41;34.70;62.70
15111;DHT22;7656;51.954;7.998;2022-08-03T16:56:04;34.60;61.90
15111;DHT22;7656;51.954;7.998;2022-08-03T17:00:25;34.70;62.50
15111;DHT22;7656;51.954;7.998;2022-08-03T17:04:46;34.80;61.80
15111;DHT22;7656;51.954;7.998;2022-08-03T17:09:12;34.80;62.10
15111;DHT22;7656;51.954;7.998;2022-08-03T17:13:36;34.70;62.50
15111;DHT22;7656;51.954;7.998;2022-08-03T17:18:03;34.50;62.40
15111;DHT22;7656;51.954;7.998;2022-08-03T17:22:32;34.40;63.60
15111;DHT22;7656;51.954;7.998;2022-08-03T17:26:54;34.20;63.50
15111;DHT22;7656;51.954;7.998;2022-08-03T17:31:25;34.10;64.40
15111;DHT22;7656;51.954;7.998;2022-08-03T17:35:46;33.80;64.10
15111;DHT22;7656;51.954;7.998;2022-08-03T17:40:09;33.80;64.10
15111;DHT22;7656;51.954;7.998;2022-08-03T17:44:33;33.70;65.00
15111;DHT22;7656;51.954;7.998;2022-08-03T17:48:54;33.60;64.80
15111;DHT22;7656;51.954;7.998;2022-08-03T17:53:22;33.60;64.30
15111;DHT22;7656;51.954;7.998;2022-08-03T17:57:52;33.60;65.00
15111;DHT22;7656;51.954;7.998;2022-08-03T18:02:35;33.40;65.80
15111;DHT22;7656;51.954;7.998;2022-08-03T18:07:24;33.30;65.80
15111;DHT22;7656;51.954;7.998;2022-08-03T18:11:50;33.30;66.00
15111;DHT22;7656;51.954;7.998;2022-08-03T18:16:33;33.20;65.70
15111;DHT22;7656;51.954;7.998;2022-08-03T18:21:01;33.10;67.30
15111;DHT22;7656;51.954;7.998;2022-08-03T18:25:24;32.90;66.50
15111;DHT22;7656;51.954;7.998;2022-08-03T18:29:46;32.70;67.50
15111;DHT22;7656;51.954;7.998;2022-08-03T18:34:09;32.50;68.20
15111;DHT22;7656;51.954;7.998;2022-08-03T18:38:38;32.30;69.30
15111;DHT22;7656;51.954;7.998;2022-08-03T18:43:01;32.00;69.60
15111;DHT22;7656;51.954;7.998;2022-08-03T18:52:04;31.70;73.50
15111;DHT22;7656;51.954;7.998;2022-08-03T18:56:47;31.50;73.00
15111;DHT22;7656;51.954;7.998;2022-08-03T19:06:03;31.10;74.20
15111;DHT22;7656;51.954;7.998;2022-08-03T19:10:30;30.80;75.40
15111;DHT22;7656;51.954;7.998;2022-08-03T19:15:04;30.60;76.00
15111;DHT22;7656;51.954;7.998;2022-08-03T19:19:30;30.50;76.80
15111;DHT22;7656;51.954;7.998;2022-08-03T19:23:54;30.30;77.20
15111;DHT22;7656;51.954;7.998;2022-08-03T19:28:22;30.10;77.80
15111;DHT22;7656;51.954;7.998;2022-08-03T19:32:44;29.90;79.20
15111;DHT22;7656;51.954;7.998;2022-08-03T19:37:10;29.80;82.00
15111;DHT22;7656;51.954;7.998;2022-08-03T19:41:37;29.60;81.80
15111;DHT22;7656;51.954;7.998;2022-08-03T19:46:04;29.40;81.50
15111;DHT22;7656;51.954;7.998;2022-08-03T19:50:32;29.20;81.90
15111;DHT22;7656;51.954;7.998;2022-08-03T19:54:55;28.90;84.90
15111;DHT22;7656;51.954;7.998;2022-08-03T19:59:21;28.40;95.70
15111;DHT22;7656;51.954;7.998;2022-08-03T20:03:43;28.10;96.50
15111;DHT22;7656;51.954;7.998;2022-08-03T20:08:05;28.00;96.40
15111;DHT22;7656;51.954;7.998;2022-08-03T20:12:27;27.90;96.70
15111;DHT22;7656;51.954;7.998;2022-08-03T20:16:50;27.90;95.20
15111;DHT22;7656;51.954;7.998;2022-08-03T20:21:13;27.70;96.40
15111;DHT22;7656;51.954;7.998;2022-08-03T20:25:46;27.60;96.80
15111;DHT22;7656;51.954;7.998;2022-08-03T20:30:11;27.70;96.40
15111;DHT22;7656;51.954;7.998;2022-08-03T20:34:34;27.50;98.80
15111;DHT22;7656;51.954;7.998;2022-08-03T20:38:55;27.00;99.90
15111;DHT22;7656;51.954;7.998;2022-08-03T20:43:16;26.80;99.90
15111;DHT22;7656;51.954;7.998;2022-08-03T20:47:40;26.60;99.90
15111;DHT22;7656;51.954;7.998;2022-08-03T20:52:02;26.50;99.90
15111;DHT22;7656;51.954;7.998;2022-08-03T20:56:24;26.50;99.90
15111;DHT22;7656;51.954;7.998;2022-08-03T21:00:46;26.40;99.90
15111;DHT22;7656;51.954;7.998;2022-08-03T21:05:08;26.40;99.90
15111;DHT22;7656;51.954;7.998;2022-08-03T21:09:43;26.00;99.90
15111;DHT22;7656;51.954;7.998;2022-08-03T21:14:26;26.10;99.90
15111;DHT22;7656;51.954;7.998;2022-08-03T21:18:58;25.90;99.90
15111;DHT22;7656;51.954;7.998;2022-08-03T21:23:20;25.70;99.90
15111;DHT22;7656;51.954;7.998;2022-08-03T21:27:42;25.80;99.90
15111;DHT22;7656;51.954;7.998;2022-08-03T21:32:04;25.60;99.90
15111;DHT22;7656;51.954;7.998;2022-08-03T21:36:30;25.50;99.90
15111;DHT22;7656;51.954;7.998;2022-08-03T21:40:52;25.50;99.90
15111;DHT22;7656;51.954;7.998;2022-08-03T21:45:14;25.10;99.90
15111;DHT22;7656;51.954;7.998;2022-08-03T21:49:36;25.00;99.90
15111;DHT22;7656;51.954;7.998;2022-08-03T21:53:57;25.00;99.90
15111;DHT22;7656;51.954;7.998;2022-08-03T21:58:25;25.00;99.90
15111;DHT22;7656;51.954;7.998;2022-08-03T22:02:56;24.80;99.90
15111;DHT22;7656;51.954;7.998;2022-08-03T22:07:19;24.70;99.90
15111;DHT22;7656;51.954;7.998;2022-08-03T22:11:43;24.80;99.90
15111;DHT22;7656;51.954;7.998;2022-08-03T22:16:04;24.60;99.90
15111;DHT22;7656;51.954;7.998;2022-08-03T22:20:26;24.50;99.90
15111;DHT22;7656;51.954;7.998;2022-08-03T22:24:52;24.50;99.90
15111;DHT22;7656;51.954;7.998;2022-08-03T22:29:19;24.50;99.90
15111;DHT22;7656;51.954;7.998;2022-08-03T22:33:43;24.30;99.90
15111;DHT22;7656;51.954;7.998;2022-08-03T22:38:05;24.00;99.90
15111;DHT22;7656;51.954;7.998;2022-08-03T22:42:28;24.00;99.90
15111;DHT22;7656;51.954;7.998;2022-08-03T22:46:50;24.00;99.90
15111;DHT22;7656;51.954;7.998;2022-08-03T22:51:13;24.10;99.90
15111;DHT22;7656;51.954;7.998;2022-08-03T22:55:35;24.00;99.90
15111;DHT22;7656;51.954;7.998;2022-08-03T22:59:57;24.00;99.90
15111;DHT22;7656;51.954;7.998;2022-08-03T23:04:20;24.00;99.90
15111;DHT22;7656;51.954;7.998;2022-08-03T23:08:43;24.10;99.90
15111;DHT22;7656;51.954;7.998;2022-08-03T23:13:06;24.10;99.90
15111;DHT22;7656;51.954;7.998;2022-08-03T23:17:30;24.10;99.90
15111;DHT22;7656;51.954;7.998;2022-08-03T23:21:57;23.80;99.90
15111;DHT22;7656;51.954;7.998;2022-08-03T23:26:19;23.80;99.90
15111;DHT22;7656;51.954;7.998;2022-08-03T23:30:41;23.80;99.90
15111;DHT22;7656;51.954;7.998;2022-08-03T23:35:05;23.70;99.90
15111;DHT22;7656;51.954;7.998;2022-08-03T23:39:46;23.70;99.90
15111;DHT22;7656;51.954;7.998;2022-08-03T23:44:08;23.60;99.90
15111;DHT22;7656;51.954;7.998;2022-08-03T23:48:30;23.10;99.90
15111;DHT22;7656;51.954;7.998;2022-08-03T23:57:41;22.80;99.90
